Tyler, TX

06:15 PM CST on februarie 22, 2017 (GMT -0600)
Front and Broadway | | Change Station

Elev 558 ft 32.35 °N, 95.30 °W | Updated 32 seconds ago

Cer senin
Cer senin
77.4 °F
Feels Like 78 °F
N
2.0
Vânt variabil Vânt from ESE

astăzi
High -- | Low -- °F
--% Chance of Precip.
Ieri
High -- | Low -- °F
Precip. -- inch
Presiunea 29.75 inch
Vizibilitatea 10.0 mile
Nori Cer senin
Indicele de căldură 78 °F
Punctul de rouă 51 °F
Umiditatea 40%
Precipitaţii 0.00 inch
Adâncimea zăpezii Not available.
6:56 AM 6:13 PM
Semilună în descreştere, 14% visible
METAR KTYR 222353Z 18005KT 10SM CLR 24/11 A2976 RMK AO2 SLP073 T02390106 10267 20228 56012
Presiunea 29.75 inch
Vizibilitatea 10.0 mile
Nori Cer senin
Indicele de căldură 78 °F
Punctul de rouă 51 °F
Umiditatea 40%
Precipitaţii 0.00 inch
Adâncimea zăpezii Not available.
6:56 AM 6:13 PM
Semilună în descreştere, 14% visible
METAR KTYR 222353Z 18005KT 10SM CLR 24/11 A2976 RMK AO2 SLP073 T02390106 10267 20228 56012

Get Your Daily Forecast Email!

Thanks for signing up!

Be on the lookout for a verification email in your inbox.

You'll start receiving the daily forecast at 8 AM.

×

10-Day Weather Forecast

Almanac

Astronomie

Feb. 22, 2017 Răsărit Apus
Timpul Actual
Crepusculul Civil
Crepusculul nautic
Răsărit Astronomic
Luna
Durata zilei lumină
Lungimea zilei
Tomorrow will be .
, % of the Moon is Illuminated

Extremele de azi

State Highs State Lows

Community

WunderPhotos

Upload Photos

1,962,540 photos uploaded!

WunderBlog® & News

Nearby

Calitatea aerului

  Calitatea aerului Index de calitate a aerului Poluat
Not available.

Adâncimea zapezii

Station Depth Elevation

Earthquake Activity

Oraş Distance Mag. Time & Date
Minimum magnitude displayed is 2.5.

Coastal Water Temperatures

Locul Temperatura

Stations

Nearby Weather Stations

Locaţia staţiei Temp Vânt rece Punctul de rouă Umiditatea Vânt Precip. Elev Actualizare Type
                   

Watches & Warnings

There are currently no watches in effect.